Terminal Aerodrome Forecast
Issued by NWS

Home | Current Version | Previous Version | Text Only | Print | Product List | Glossary On
Versions: 1 2 3 4 5 6 7 8 9 10 11 12 13 14 15 16 17 18 19 20 21 22 23 24 25 26
000
FTUS41 KOKX 041434 AAA
TAFTEB
TAF AMD
KTEB 041434Z 0415/0512 22007KT P6SM SCT050
     FM041800 25015G22KT P6SM SCT050
     FM050000 29008KT P6SM SCT250
     FM050400 31004KT P6SM SCT250=

USA.gov is the U.S. government's official web portal to all federal, state and local government web resources and services.